Stanleytown, Virginia
Current Conditions -  °F | °C
As of 11:55 AM on Thursday 23 Oct 2014 (Local Time) from KMTV Reporting Station
Clear Clear  
Wind Chill: 61°   Ceiling: Unl
Heat Index: 61°   Visibility: 10mi
Dew Point: 40°   Wind: 14mph
Humidity: 47%   Direction: 330°NNW
Pressure: 30.09"   Gusts: 25mph
Location:  36.75°N, 79.95°W
Report Text: KMTV 231555Z AUTO 33012G22KT 10SM CLR 16/05 A3009 RMK AO2 T01590046
Loading
Personal Weather Stations






























Interactive Weather Map
Tropical Storm Tracking
New forecast layout! Learn more

10-Day Weather Forecast

Advertisements
Track Severe Weather on mobile